KDVP

Slayton Municipal Airport

Slayton, Minnesota, USA
METAR KDVP 201517Z AUTO 29010KT 10SM SCT046 SCT065 M14/M16 A2999 RMK AO2 T11371157
Observed Flight Rules
Feb-20 @ 15:17 UTC (2 hours ago) Visual Flight Rules
Wind Visibility Clouds
290° at 10 knots 10 miles
  • Scattered at 4,600' AGL
  • Scattered at 6,500' AGL
Temperatures Readings
Current -14°C / 7°F
Dewpoint -16°C / 3°F
Humidity 85%
Altimeter 29.99" Hg
Pressure 1016 hPa
Elevation 495
METAR KDVP 201517Z AUTO 29010KT 10SM SCT046 SCT065 M14/M16 A2999 RMK AO2 T11371157
Observed Flight Rules
Feb-20 @ 15:17 UTC
(2 hours ago)
VFR
Wind Visibility
290° at 10 knots 10 miles
Clouds
  • Scattered at 4,600' AGL
  • Scattered at 6,500' AGL
Temperature Dewpoint
-14°C / 7°F -16°C / 3°F
Humidity Altimeter Pressure
85% 29.99" Hg 1016 hPa